createdAt,value
2023-02-09T00:00:08.155Z,103004.00
2023-02-09T00:00:39.835Z,102994.94
2023-02-09T00:01:14.151Z,103006.28
2023-02-09T00:01:45.806Z,102997.84
2023-02-09T00:02:17.580Z,103002.25
2023-02-09T00:02:49.325Z,103000.56
2023-02-09T00:03:21.064Z,102998.94
2023-02-09T00:03:53.450Z,103004.16
2023-02-09T00:04:25.118Z,102997.34
2023-02-09T00:04:56.743Z,102992.31
2023-02-09T00:05:28.393Z,103006.66
2023-02-09T00:06:01.023Z,102992.31
2023-02-09T00:06:33.331Z,103003.34
2023-02-09T00:07:05.061Z,102990.38
2023-02-09T00:07:36.810Z,102999.59
2023-02-09T00:08:08.460Z,102997.13
2023-02-09T00:08:40.366Z,102998.66
2023-02-09T00:09:12.103Z,102992.81
2023-02-09T00:09:45.416Z,102999.75
2023-02-09T00:10:17.297Z,102996.47
2023-02-09T00:10:48.979Z,102991.47
2023-02-09T00:11:50.123Z,102999.69
2023-02-09T00:12:40.061Z,102995.66
2023-02-09T00:13:23.893Z,102993.06
2023-02-09T00:13:55.532Z,102998.66
2023-02-09T00:14:27.910Z,102999.44
2023-02-09T00:14:59.548Z,103001.38
2023-02-09T00:15:31.215Z,102992.88
2023-02-09T00:16:03.705Z,102994.75
2023-02-09T00:16:35.433Z,102998.06
2023-02-09T00:17:07.130Z,103003.84
2023-02-09T00:17:38.780Z,102997.78
2023-02-09T00:18:10.408Z,102997.13
2023-02-09T00:18:42.094Z,102998.94
2023-02-09T00:19:15.038Z,103003.97
2023-02-09T00:19:46.727Z,103001.16
2023-02-09T00:20:18.660Z,103000.09
2023-02-09T00:21:02.536Z,102998.47
2023-02-09T00:21:34.236Z,102998.34
2023-02-09T00:22:05.897Z,102995.84
2023-02-09T00:22:37.584Z,103000.16
2023-02-09T00:23:09.308Z,102994.16
2023-02-09T00:23:41.347Z,102995.03
2023-02-09T00:24:14.702Z,102989.94
2023-02-09T00:24:46.603Z,102995.84
2023-02-09T00:25:18.295Z,103007.66
2023-02-09T00:25:50.964Z,102994.66
2023-02-09T00:26:22.773Z,102996.50
2023-02-09T00:26:54.430Z,102994.72
2023-02-09T00:27:26.137Z,102999.78
2023-02-09T00:27:57.814Z,102992.06
2023-02-09T00:28:30.015Z,102995.44
2023-02-09T00:29:02.054Z,102995.38
2023-02-09T00:29:33.707Z,102990.94
2023-02-09T00:30:05.900Z,102994.34
2023-02-09T00:30:37.714Z,102997.78
2023-02-09T00:31:12.356Z,103001.16
2023-02-09T00:31:44.179Z,103004.56
2023-02-09T00:32:15.846Z,102997.84
2023-02-09T00:32:47.515Z,102997.09
2023-02-09T00:33:19.216Z,102988.44
2023-02-09T00:33:50.926Z,102991.75
2023-02-09T00:34:22.628Z,102995.91
2023-02-09T00:34:54.271Z,102990.00
2023-02-09T00:35:25.914Z,102990.81
2023-02-09T00:35:57.578Z,102989.84
2023-02-09T00:36:30.174Z,102996.00
2023-02-09T00:37:01.832Z,102996.09
2023-02-09T00:37:35.157Z,102993.72
2023-02-09T00:38:07.328Z,102990.50
2023-02-09T00:38:40.204Z,102986.44
2023-02-09T00:39:12.006Z,102990.94
2023-02-09T00:39:43.675Z,102991.84
2023-02-09T00:40:15.416Z,102990.00
2023-02-09T00:40:47.971Z,102992.41
2023-02-09T00:41:39.694Z,102989.84
2023-02-09T00:42:11.422Z,102988.38
2023-02-09T00:42:43.104Z,102982.34
2023-02-09T00:43:14.878Z,102981.41
2023-02-09T00:43:46.550Z,102986.63
2023-02-09T00:44:18.400Z,102988.19
2023-02-09T00:44:50.087Z,102981.25
2023-02-09T00:45:21.729Z,102982.06
2023-02-09T00:45:53.437Z,102980.34
2023-02-09T00:46:25.099Z,102973.97
2023-02-09T00:46:57.056Z,102981.69
2023-02-09T00:47:28.762Z,102977.19
2023-02-09T00:48:00.474Z,102982.78
2023-02-09T00:48:32.470Z,102980.44
2023-02-09T00:49:04.894Z,102978.75
2023-02-09T00:49:36.676Z,102980.50
2023-02-09T00:50:09.318Z,102989.97
2023-02-09T00:50:40.981Z,102985.78
2023-02-09T00:51:12.654Z,102987.72
2023-02-09T00:51:44.531Z,102982.69
2023-02-09T00:52:16.199Z,102983.56
2023-02-09T00:52:47.897Z,102981.00
2023-02-09T00:53:21.300Z,102982.88
2023-02-09T00:53:52.989Z,102974.41
2023-02-09T00:54:25.239Z,102984.50
2023-02-09T00:54:56.910Z,102980.06
2023-02-09T00:55:28.567Z,102980.88
2023-02-09T00:56:00.210Z,102973.28
2023-02-09T00:56:32.008Z,102983.69
2023-02-09T00:57:05.535Z,102977.03
2023-02-09T00:57:37.320Z,102972.69
2023-02-09T00:58:09.187Z,102970.72
2023-02-09T00:58:40.842Z,102975.84
2023-02-09T00:59:13.123Z,102972.56
2023-02-09T00:59:44.891Z,102978.59
2023-02-09T01:00:17.280Z,102969.03
2023-02-09T01:00:49.164Z,102972.34
2023-02-09T01:01:20.922Z,102981.81
2023-02-09T01:01:52.604Z,102976.75
2023-02-09T01:02:24.512Z,102980.28
2023-02-09T01:02:57.479Z,102969.19
2023-02-09T01:03:29.190Z,102975.19
2023-02-09T01:04:00.893Z,102976.84
2023-02-09T01:04:33.324Z,102972.56
2023-02-09T01:05:05.310Z,102976.84
2023-02-09T01:05:41.544Z,102971.75
2023-02-09T01:06:13.231Z,102967.63
2023-02-09T01:06:44.904Z,102966.00
2023-02-09T01:07:16.797Z,102972.88
2023-02-09T01:07:48.460Z,102971.00
2023-02-09T01:08:20.108Z,102967.56
2023-02-09T01:08:51.861Z,102966.88
2023-02-09T01:09:23.831Z,102969.44
2023-02-09T01:09:55.653Z,102970.31
2023-02-09T01:10:27.363Z,102966.97
2023-02-09T01:10:59.055Z,102964.31
2023-02-09T01:11:30.942Z,102970.25
2023-02-09T01:12:02.666Z,102965.94
2023-02-09T01:12:34.402Z,102963.38
2023-02-09T01:13:06.689Z,102960.84
2023-02-09T01:13:38.621Z,102968.31
2023-02-09T01:14:10.419Z,102968.13
2023-02-09T01:14:43.434Z,102965.31
2023-02-09T01:15:15.266Z,102965.13
2023-02-09T01:15:46.958Z,102965.72
2023-02-09T01:16:18.955Z,102964.66
2023-02-09T01:16:50.712Z,102963.84
2023-02-09T01:17:22.637Z,102962.38
2023-02-09T01:17:54.345Z,102961.66
2023-02-09T01:18:26.027Z,102963.44
2023-02-09T01:19:01.923Z,102963.28
2023-02-09T01:19:34.099Z,102959.00
2023-02-09T01:20:10.260Z,102968.34
2023-02-09T01:20:43.314Z,102963.25
2023-02-09T01:21:20.897Z,102958.78
2023-02-09T01:21:52.585Z,102963.78
2023-02-09T01:22:24.265Z,102963.78
2023-02-09T01:22:55.906Z,102962.97
2023-02-09T01:23:27.579Z,102961.16
2023-02-09T01:23:59.747Z,102956.88
2023-02-09T01:24:31.414Z,102952.44
2023-02-09T01:25:04.073Z,102955.91
2023-02-09T01:25:35.817Z,102955.13
2023-02-09T01:26:10.062Z,102952.50
2023-02-09T01:26:42.353Z,102956.72
2023-02-09T01:27:14.147Z,102955.13
2023-02-09T01:27:45.882Z,102954.28
2023-02-09T01:28:17.622Z,102956.13
2023-02-09T01:28:52.435Z,102955.25
2023-02-09T01:29:24.129Z,102958.47
2023-02-09T01:29:55.806Z,102954.06
2023-02-09T01:30:28.157Z,102946.88
2023-02-09T01:30:59.974Z,102953.66
2023-02-09T01:31:35.062Z,102953.66
2023-02-09T01:32:07.235Z,102951.94
2023-02-09T01:32:39.024Z,102951.19
2023-02-09T01:33:10.705Z,102950.97
2023-02-09T01:33:42.479Z,102950.91
2023-02-09T01:34:16.774Z,102949.16
2023-02-09T01:34:54.838Z,102945.81
2023-02-09T01:35:26.738Z,102947.53
2023-02-09T01:36:07.904Z,102951.78
2023-02-09T01:36:39.729Z,102947.75
2023-02-09T01:37:11.371Z,102947.75
2023-02-09T01:37:43.047Z,102945.16
2023-02-09T01:38:15.053Z,102949.44
2023-02-09T01:38:46.847Z,102944.41
2023-02-09T01:39:18.551Z,102947.88
2023-02-09T01:39:50.222Z,102947.94
2023-02-09T01:40:21.935Z,102942.78
2023-02-09T01:40:53.566Z,102943.59
2023-02-09T01:41:25.951Z,102935.94
2023-02-09T01:41:57.656Z,102941.03
2023-02-09T01:42:29.329Z,102942.78
2023-02-09T01:43:00.989Z,102939.41
2023-02-09T01:43:50.787Z,102936.06
2023-02-09T01:44:22.372Z,102929.34
2023-02-09T01:45:08.148Z,102937.94
2023-02-09T01:45:54.841Z,102932.84
2023-02-09T01:46:30.227Z,102927.84
2023-02-09T01:47:01.909Z,102929.63
2023-02-09T01:47:41.882Z,102932.22
2023-02-09T01:48:15.240Z,102934.84
2023-02-09T01:48:51.219Z,102928.91
2023-02-09T01:49:26.974Z,102926.44
2023-02-09T01:49:58.810Z,102922.13
2023-02-09T01:50:36.553Z,102933.97
2023-02-09T01:51:08.612Z,102930.50
2023-02-09T01:51:55.923Z,102920.78
2023-02-09T01:52:30.311Z,102923.22
2023-02-09T01:53:03.353Z,102924.03
2023-02-09T01:53:35.084Z,102925.72
2023-02-09T01:54:15.221Z,102920.63
2023-02-09T01:55:00.504Z,102925.72
2023-02-09T01:55:39.603Z,102922.34
2023-02-09T01:56:18.558Z,102922.25
2023-02-09T01:56:57.335Z,102920.44
2023-02-09T01:57:37.387Z,102921.16
2023-02-09T01:58:17.533Z,102922.91
2023-02-09T01:58:49.750Z,102923.72
2023-02-09T01:59:21.855Z,102921.03
2023-02-09T02:00:00.824Z,102916.66
2023-02-09T02:00:32.782Z,102919.09
2023-02-09T02:01:04.629Z,102919.16
2023-02-09T02:01:38.127Z,102917.41
2023-02-09T02:02:11.443Z,102914.81
2023-02-09T02:02:47.980Z,102914.19
2023-02-09T02:03:24.804Z,102908.13
2023-02-09T02:03:56.825Z,102913.25
2023-02-09T02:04:28.994Z,102911.66
2023-02-09T02:05:00.937Z,102909.22
2023-02-09T02:05:37.445Z,102909.22
2023-02-09T02:06:14.300Z,102911.09
2023-02-09T02:06:47.629Z,102915.25
2023-02-09T02:07:49.949Z,102911.97
2023-02-09T02:08:45.681Z,102913.50
2023-02-09T02:09:18.245Z,102913.56
2023-02-09T02:09:50.963Z,102910.97
2023-02-09T02:10:22.709Z,102908.41
2023-02-09T02:10:55.186Z,102913.44
2023-02-09T02:11:29.893Z,102914.19
2023-02-09T02:12:02.464Z,102909.91
2023-02-09T02:12:35.926Z,102909.91
2023-02-09T02:13:07.690Z,102904.66
2023-02-09T02:13:39.516Z,102909.00
2023-02-09T02:14:33.073Z,102916.81
2023-02-09T02:15:05.044Z,102910.22
2023-02-09T02:16:01.108Z,102910.28
2023-02-09T02:16:59.607Z,102909.28
2023-02-09T02:17:49.459Z,102905.84
2023-02-09T02:18:45.560Z,102906.78
2023-02-09T02:19:41.235Z,102905.78
2023-02-09T02:20:31.551Z,102909.91
2023-02-09T02:21:24.986Z,102903.03
2023-02-09T02:22:23.854Z,102905.69
2023-02-09T02:23:04.220Z,102904.59
2023-02-09T02:23:49.592Z,102905.53
2023-02-09T02:24:30.269Z,102902.03
2023-02-09T02:25:04.530Z,102902.16
2023-02-09T02:26:00.194Z,102896.94
2023-02-09T02:26:54.492Z,102903.03
2023-02-09T02:27:38.141Z,102901.28
2023-02-09T02:28:31.885Z,102905.53
2023-02-09T02:29:22.405Z,102903.78
2023-02-09T02:30:15.291Z,102894.44
2023-02-09T02:31:07.830Z,102897.81
2023-02-09T02:32:01.201Z,102897.16
2023-02-09T02:32:44.285Z,102904.81
2023-02-09T02:33:15.868Z,102889.34
2023-02-09T02:34:09.176Z,102903.78
2023-02-09T02:34:52.577Z,102898.69
2023-02-09T02:35:33.138Z,102899.44
2023-02-09T02:36:25.841Z,102897.41
2023-02-09T02:37:09.561Z,102895.69
2023-02-09T02:37:41.144Z,102890.50
2023-02-09T02:38:38.543Z,102889.72
2023-02-09T02:39:22.443Z,102894.72
2023-02-09T02:40:25.802Z,102896.34
2023-02-09T02:41:20.102Z,102892.72
2023-02-09T02:42:27.839Z,102892.00
2023-02-09T02:43:18.097Z,102893.78
2023-02-09T02:44:04.141Z,102892.06
2023-02-09T02:44:41.235Z,102893.66
2023-02-09T02:45:34.070Z,102893.66
2023-02-09T02:46:16.714Z,102898.63
2023-02-09T02:46:57.693Z,102894.38
2023-02-09T02:47:33.239Z,102897.75
2023-02-09T02:48:44.670Z,102893.56
2023-02-09T02:49:55.499Z,102896.00
2023-02-09T02:50:31.537Z,102893.53
2023-02-09T02:51:40.703Z,102897.81
2023-02-09T02:52:12.505Z,102899.44
2023-02-09T02:52:47.827Z,102891.50
2023-02-09T02:53:25.795Z,102890.78
2023-02-09T02:54:03.435Z,102898.22
2023-02-09T02:55:09.546Z,102894.81
2023-02-09T02:55:45.580Z,102890.50
2023-02-09T02:56:39.862Z,102899.78
2023-02-09T02:57:20.595Z,102897.22
2023-02-09T02:57:57.684Z,102903.03
2023-02-09T02:58:31.117Z,102901.31
2023-02-09T02:59:08.179Z,102900.44
2023-02-09T02:59:57.092Z,102901.03
2023-02-09T03:00:36.657Z,102897.81
2023-02-09T03:01:14.971Z,102893.53
2023-02-09T03:01:56.072Z,102902.75
2023-02-09T03:02:38.197Z,102905.19
2023-02-09T03:03:17.156Z,102898.28
2023-02-09T03:03:51.487Z,102899.00
2023-02-09T03:04:26.671Z,102909.28
2023-02-09T03:05:00.788Z,102900.91
2023-02-09T03:05:33.160Z,102905.94
2023-02-09T03:06:06.522Z,102904.25
2023-02-09T03:06:38.485Z,102905.06
2023-02-09T03:07:10.922Z,102905.88
2023-02-09T03:07:42.606Z,102899.75
2023-02-09T03:08:14.465Z,102898.81
2023-02-09T03:08:52.928Z,102903.03
2023-02-09T03:09:24.638Z,102898.47
2023-02-09T03:09:57.404Z,102895.91
2023-02-09T03:10:36.472Z,102900.94
2023-02-09T03:11:11.234Z,102902.47
2023-02-09T03:11:48.362Z,102904.38
2023-02-09T03:12:49.297Z,102897.25
2023-02-09T03:13:48.350Z,102890.47
2023-02-09T03:14:27.672Z,102893.97
2023-02-09T03:15:29.150Z,102896.44
2023-02-09T03:16:29.433Z,102893.91
2023-02-09T03:17:37.211Z,102896.63
2023-02-09T03:18:53.934Z,102890.53
2023-02-09T03:19:52.790Z,102890.59
2023-02-09T03:20:38.241Z,102896.50
2023-02-09T03:21:38.956Z,102894.69
2023-02-09T03:22:37.070Z,102889.66
2023-02-09T03:23:16.225Z,102887.94
2023-02-09T03:23:58.616Z,102889.38
2023-02-09T03:25:08.080Z,102898.06
2023-02-09T03:25:46.911Z,102888.38
2023-02-09T03:26:24.480Z,102896.91
2023-02-09T03:27:28.808Z,102891.94
2023-02-09T03:28:08.569Z,102885.97
2023-02-09T03:28:45.799Z,102886.53
2023-02-09T03:29:21.556Z,102886.53
2023-02-09T03:29:57.873Z,102892.38
2023-02-09T03:30:32.902Z,102888.22
2023-02-09T03:31:06.012Z,102884.06
2023-02-09T03:31:40.976Z,102889.31
2023-02-09T03:32:13.237Z,102889.03
2023-02-09T03:32:46.866Z,102886.25
2023-02-09T03:33:28.675Z,102886.19
2023-02-09T03:34:01.166Z,102888.91
2023-02-09T03:34:33.257Z,102888.91
2023-02-09T03:35:05.951Z,102891.50
2023-02-09T03:35:41.295Z,102886.72
2023-02-09T03:36:16.880Z,102896.16
2023-02-09T03:36:56.134Z,102890.84
2023-02-09T03:37:27.805Z,102886.53
2023-02-09T03:38:00.627Z,102884.06
2023-02-09T03:38:32.284Z,102900.03
2023-02-09T03:39:04.550Z,102897.47
2023-02-09T03:39:36.373Z,102894.00
2023-02-09T03:40:08.965Z,102894.00
2023-02-09T03:40:40.617Z,102892.25
2023-02-09T03:41:12.434Z,102895.75
2023-02-09T03:41:44.114Z,102893.31
2023-02-09T03:42:16.115Z,102889.91
2023-02-09T03:42:49.228Z,102894.00
2023-02-09T03:43:41.283Z,102896.25
2023-02-09T03:44:29.181Z,102894.63
2023-02-09T03:45:01.200Z,102895.81
2023-02-09T03:45:32.843Z,102898.94
2023-02-09T03:46:04.662Z,102897.94
2023-02-09T03:46:36.359Z,102888.63
2023-02-09T03:47:09.813Z,102896.38
2023-02-09T03:47:41.492Z,102891.97
2023-02-09T03:48:13.160Z,102893.72
2023-02-09T03:48:44.849Z,102888.69
2023-02-09T03:49:16.492Z,102887.94
2023-02-09T03:49:48.127Z,102891.97
2023-02-09T03:50:19.779Z,102892.69
2023-02-09T03:50:51.427Z,102896.09
2023-02-09T03:51:23.155Z,102891.69
2023-02-09T03:51:55.442Z,102897.56
2023-02-09T03:52:27.350Z,102894.97
2023-02-09T03:52:59.633Z,102898.09
2023-02-09T03:53:31.256Z,102898.09
2023-02-09T03:54:03.913Z,102894.88
2023-02-09T03:54:35.701Z,102892.25
2023-02-09T03:55:07.563Z,102888.03
2023-02-09T03:55:39.239Z,102886.50
2023-02-09T03:56:10.902Z,102895.66
2023-02-09T03:56:42.588Z,102889.88
2023-02-09T03:57:14.258Z,102894.16
2023-02-09T03:57:45.915Z,102890.88
2023-02-09T03:58:17.729Z,102889.94
2023-02-09T03:58:49.448Z,102890.06
2023-02-09T03:59:21.583Z,102891.69
2023-02-09T03:59:53.236Z,102892.31
2023-02-09T04:00:25.009Z,102894.00
2023-02-09T04:01:07.758Z,102896.47
2023-02-09T04:01:39.523Z,102895.91
2023-02-09T04:02:11.270Z,102897.56
2023-02-09T04:02:44.128Z,102893.28
2023-02-09T04:03:15.820Z,102893.13
2023-02-09T04:03:47.529Z,102891.50
2023-02-09T04:04:20.706Z,102894.06
2023-02-09T04:04:53.616Z,102895.53
2023-02-09T04:05:25.398Z,102895.66
2023-02-09T04:05:57.304Z,102898.28
2023-02-09T04:06:31.740Z,102903.31
2023-02-09T04:07:03.587Z,102900.69
2023-02-09T04:07:35.311Z,102900.63
2023-02-09T04:08:06.995Z,102899.03
2023-02-09T04:08:38.959Z,102903.25
2023-02-09T04:09:11.988Z,102905.91
2023-02-09T04:09:43.743Z,102900.63
2023-02-09T04:10:15.528Z,102902.25
2023-02-09T04:10:47.310Z,102903.00
2023-02-09T04:11:19.129Z,102904.63
2023-02-09T04:11:51.152Z,102899.53
2023-02-09T04:12:22.880Z,102902.13
2023-02-09T04:12:54.526Z,102901.28
2023-02-09T04:13:26.507Z,102896.19
2023-02-09T04:13:58.647Z,102900.47
2023-02-09T04:14:30.346Z,102899.59
2023-02-09T04:15:02.344Z,102903.00
2023-02-09T04:15:34.017Z,102897.16
2023-02-09T04:16:06.026Z,102896.19
2023-02-09T04:16:37.939Z,102896.41
2023-02-09T04:17:09.634Z,102904.13
2023-02-09T04:17:41.264Z,102902.25
2023-02-09T04:18:12.972Z,102900.41
2023-02-09T04:18:45.736Z,102906.38
2023-02-09T04:19:17.633Z,102907.34
2023-02-09T04:19:49.458Z,102898.78
2023-02-09T04:20:21.157Z,102904.03
2023-02-09T04:20:52.844Z,102899.75
2023-02-09T04:21:24.757Z,102907.91
2023-02-09T04:21:56.420Z,102905.19
2023-02-09T04:22:28.115Z,102902.75
2023-02-09T04:22:59.806Z,102906.06
2023-02-09T04:23:31.471Z,102899.34
2023-02-09T04:24:03.822Z,102905.34
2023-02-09T04:24:35.502Z,102906.59
2023-02-09T04:25:07.375Z,102903.81
2023-02-09T04:25:39.118Z,102904.75
2023-02-09T04:26:10.943Z,102898.50
2023-02-09T04:26:42.606Z,102902.00
2023-02-09T04:27:14.755Z,102901.03
2023-02-09T04:27:46.422Z,102896.75
2023-02-09T04:28:18.249Z,102907.75
2023-02-09T04:28:49.952Z,102912.03
2023-02-09T04:29:21.614Z,102898.50
2023-02-09T04:29:53.257Z,102898.66
2023-02-09T04:30:24.970Z,102902.16
2023-02-09T04:30:57.140Z,102898.78
2023-02-09T04:31:29.026Z,102895.69
2023-02-09T04:32:00.982Z,102896.56
2023-02-09T04:32:32.686Z,102895.75
2023-02-09T04:33:04.490Z,102899.66
2023-02-09T04:33:36.778Z,102894.44
2023-02-09T04:34:08.572Z,102891.09
2023-02-09T04:34:40.241Z,102888.69
2023-02-09T04:35:11.897Z,102888.09
2023-02-09T04:35:45.588Z,102893.94
2023-02-09T04:36:17.774Z,102891.41
2023-02-09T04:36:49.575Z,102891.41
2023-02-09T04:37:21.268Z,102887.25
2023-02-09T04:37:52.946Z,102896.69
2023-02-09T04:38:25.970Z,102895.00
2023-02-09T04:38:57.635Z,102893.06
2023-02-09T04:39:29.359Z,102890.59
2023-02-09T04:40:01.000Z,102895.31
2023-02-09T04:40:32.615Z,102890.34
2023-02-09T04:41:05.222Z,102897.19
2023-02-09T04:41:36.910Z,102894.94
2023-02-09T04:42:08.560Z,102894.13
2023-02-09T04:42:40.221Z,102889.03
2023-02-09T04:43:11.995Z,102890.66
2023-02-09T04:43:43.736Z,102899.16
2023-02-09T04:44:15.420Z,102899.03
2023-02-09T04:44:47.084Z,102898.34
2023-02-09T04:45:18.863Z,102893.28
2023-02-09T04:45:50.913Z,102889.84
2023-02-09T04:46:22.808Z,102887.19
2023-02-09T04:46:54.507Z,102899.09
2023-02-09T04:47:26.197Z,102890.72
2023-02-09T04:47:57.860Z,102892.09
2023-02-09T04:48:30.648Z,102894.06
2023-02-09T04:49:02.459Z,102885.56
2023-02-09T04:49:34.263Z,102888.19
2023-02-09T04:50:06.260Z,102886.59
2023-02-09T04:50:38.451Z,102885.69
2023-02-09T04:51:10.657Z,102888.91
2023-02-09T04:51:42.400Z,102882.66
2023-02-09T04:52:14.116Z,102892.03
2023-02-09T04:52:45.778Z,102888.56
2023-02-09T04:53:18.076Z,102889.56
2023-02-09T04:53:49.717Z,102888.84
2023-02-09T04:54:21.388Z,102882.66
2023-02-09T04:54:53.050Z,102892.34
2023-02-09T04:55:24.714Z,102889.66
2023-02-09T04:55:56.362Z,102887.81
2023-02-09T04:56:27.990Z,102890.06
2023-02-09T04:57:18.443Z,102892.91
2023-02-09T04:58:08.661Z,102895.00
2023-02-09T04:58:59.188Z,102887.25
2023-02-09T04:59:39.129Z,102889.06
2023-02-09T05:00:11.482Z,102895.69
2023-02-09T05:00:43.312Z,102892.41
2023-02-09T05:01:20.185Z,102893.84
2023-02-09T05:01:52.149Z,102897.69
2023-02-09T05:02:23.839Z,102898.19
2023-02-09T05:02:55.569Z,102896.50
2023-02-09T05:03:27.411Z,102892.34
2023-02-09T05:03:59.201Z,102901.78
2023-02-09T05:04:30.985Z,102896.44
2023-02-09T05:05:02.670Z,102900.53
2023-02-09T05:05:39.246Z,102899.06
2023-02-09T05:06:11.315Z,102895.81
2023-02-09T05:06:42.987Z,102901.91
2023-02-09T05:07:14.748Z,102896.81
2023-02-09T05:07:46.645Z,102897.06
2023-02-09T05:08:18.296Z,102900.22
2023-02-09T05:08:50.067Z,102895.06
2023-02-09T05:09:21.739Z,102899.91
2023-02-09T05:09:53.556Z,102895.56
2023-02-09T05:10:25.369Z,102894.03
2023-02-09T05:10:57.467Z,102889.19
2023-02-09T05:11:29.182Z,102892.53
2023-02-09T05:12:01.202Z,102885.63
2023-02-09T05:12:32.917Z,102897.63
2023-02-09T05:13:04.611Z,102891.09
2023-02-09T05:13:37.026Z,102887.75
2023-02-09T05:14:08.770Z,102892.84
2023-02-09T05:14:40.555Z,102897.19
2023-02-09T05:15:12.226Z,102896.44
2023-02-09T05:15:43.926Z,102893.13
2023-02-09T05:16:19.627Z,102891.38
2023-02-09T05:16:51.400Z,102894.78
2023-02-09T05:17:23.134Z,102892.97
2023-02-09T05:17:55.048Z,102892.97
2023-02-09T05:18:26.787Z,102899.72
2023-02-09T05:18:58.427Z,102898.06
2023-02-09T05:19:30.103Z,102903.06
2023-02-09T05:20:01.931Z,102901.41
2023-02-09T05:20:33.640Z,102899.81
2023-02-09T05:21:05.573Z,102895.59
2023-02-09T05:21:37.224Z,102897.25
2023-02-09T05:22:09.108Z,102897.13
2023-02-09T05:22:40.814Z,102897.13
2023-02-09T05:23:13.350Z,102898.88
2023-02-09T05:23:45.070Z,102896.31
2023-02-09T05:24:16.758Z,102890.34
2023-02-09T05:24:48.406Z,102895.44
2023-02-09T05:25:20.052Z,102894.72
2023-02-09T05:25:51.771Z,102899.81
2023-02-09T05:26:23.508Z,102893.91
2023-02-09T05:26:55.204Z,102893.91
2023-02-09T05:27:26.937Z,102895.00
2023-02-09T05:27:58.677Z,102898.38
2023-02-09T05:28:30.373Z,102896.63
2023-02-09T05:29:02.506Z,102894.22
2023-02-09T05:29:34.175Z,102897.31
2023-02-09T05:30:06.503Z,102904.09
2023-02-09T05:30:38.202Z,102896.56
2023-02-09T05:31:09.966Z,102900.09
2023-02-09T05:31:41.748Z,102902.59
2023-02-09T05:32:13.498Z,102903.81
2023-02-09T05:32:45.187Z,102900.47
2023-02-09T05:33:16.838Z,102909.19
2023-02-09T05:33:48.526Z,102908.41
2023-02-09T05:34:20.265Z,102907.50
2023-02-09T05:34:51.898Z,102901.41
2023-02-09T05:35:23.744Z,102914.06
2023-02-09T05:35:56.061Z,102904.59
2023-02-09T05:36:27.927Z,102908.09
2023-02-09T05:36:59.711Z,102891.09
2023-02-09T05:37:31.353Z,102912.38
2023-02-09T05:38:03.480Z,102907.94
2023-02-09T05:38:36.330Z,102907.94
2023-02-09T05:39:07.961Z,102908.81
2023-02-09T05:39:39.608Z,102909.69
2023-02-09T05:40:12.628Z,102908.03
2023-02-09T05:40:46.653Z,102905.38
2023-02-09T05:41:37.390Z,102906.34
2023-02-09T05:42:15.530Z,102905.56
2023-02-09T05:42:47.196Z,102905.38
2023-02-09T05:43:18.879Z,102903.81
2023-02-09T05:43:50.554Z,102902.22
2023-02-09T05:44:22.263Z,102904.03
2023-02-09T05:44:54.103Z,102895.44
2023-02-09T05:45:25.806Z,102897.19
2023-02-09T05:45:57.468Z,102895.50
2023-02-09T05:46:29.322Z,102895.50
2023-02-09T05:47:01.255Z,102895.44
2023-02-09T05:47:33.119Z,102900.47
2023-02-09T05:48:04.818Z,102892.03
2023-02-09T05:48:36.574Z,102890.13
2023-02-09T05:49:08.271Z,102901.09
2023-02-09T05:49:40.027Z,102894.41
2023-02-09T05:50:11.696Z,102891.09
2023-02-09T05:50:43.552Z,102897.63
2023-02-09T05:51:15.347Z,102899.06
2023-02-09T05:51:47.086Z,102900.59
2023-02-09T05:52:19.914Z,102895.63
2023-02-09T05:52:51.535Z,102897.50
2023-02-09T05:53:23.239Z,102904.81
2023-02-09T05:53:56.330Z,102894.56
2023-02-09T05:54:28.085Z,102903.06
2023-02-09T05:54:59.795Z,102903.81
2023-02-09T05:55:31.454Z,102903.34
2023-02-09T05:56:03.163Z,102904.13
2023-02-09T05:56:35.682Z,102905.88
2023-02-09T05:57:07.806Z,102905.88
2023-02-09T05:57:41.354Z,102902.47
2023-02-09T05:58:13.779Z,102909.91
2023-02-09T05:58:45.419Z,102903.38
2023-02-09T05:59:17.184Z,102905.13
2023-02-09T05:59:48.900Z,102906.09
2023-02-09T06:00:20.882Z,102905.44
2023-02-09T06:00:52.514Z,102904.81
2023-02-09T06:01:24.201Z,102901.94
2023-02-09T06:01:56.119Z,102904.25
2023-02-09T06:02:27.862Z,102904.19
2023-02-09T06:02:59.654Z,102909.03
2023-02-09T06:03:32.259Z,102910.88
2023-02-09T06:04:04.251Z,102904.84
2023-02-09T06:04:35.967Z,102906.28
2023-02-09T06:05:08.183Z,102903.81
2023-02-09T06:05:39.965Z,102904.03
2023-02-09T06:06:11.674Z,102904.66
2023-02-09T06:06:43.499Z,102908.00
2023-02-09T06:07:15.147Z,102903.88
2023-02-09T06:07:46.821Z,102913.91
2023-02-09T06:08:18.464Z,102904.53
2023-02-09T06:08:50.165Z,102909.63
2023-02-09T06:09:22.592Z,102908.75
2023-02-09T06:09:54.226Z,102911.34
2023-02-09T06:10:25.917Z,102905.63
2023-02-09T06:10:57.610Z,102908.31
2023-02-09T06:11:29.282Z,102902.19
2023-02-09T06:12:00.988Z,102912.47
2023-02-09T06:12:32.617Z,102916.59
2023-02-09T06:13:04.454Z,102908.09
2023-02-09T06:13:36.167Z,102911.50
2023-02-09T06:14:08.092Z,102909.94
2023-02-09T06:14:39.769Z,102906.41
2023-02-09T06:15:12.660Z,102903.81
2023-02-09T06:15:44.348Z,102915.72
2023-02-09T06:16:16.044Z,102904.84
2023-02-09T06:16:48.087Z,102906.59
2023-02-09T06:17:19.772Z,102913.41
2023-02-09T06:17:51.457Z,102913.56
2023-02-09T06:18:23.117Z,102912.75
2023-02-09T06:18:55.242Z,102908.66
2023-02-09T06:19:26.907Z,102912.13
2023-02-09T06:19:58.546Z,102910.22
2023-02-09T06:20:30.212Z,102909.41
2023-02-09T06:21:01.936Z,102905.28
2023-02-09T06:21:33.615Z,102908.66
2023-02-09T06:22:05.441Z,102911.94
2023-02-09T06:22:37.144Z,102910.38
2023-02-09T06:23:08.848Z,102908.72
2023-02-09T06:23:40.555Z,102910.38
2023-02-09T06:24:13.180Z,102913.00
2023-02-09T06:24:44.914Z,102911.31
2023-02-09T06:25:16.960Z,102914.19
2023-02-09T06:25:48.776Z,102907.34
2023-02-09T06:26:20.488Z,102905.75
2023-02-09T06:26:52.232Z,102913.38
2023-02-09T06:27:23.971Z,102913.50
2023-02-09T06:27:55.686Z,102907.78
2023-02-09T06:28:27.431Z,102914.75
2023-02-09T06:28:59.192Z,102910.66
2023-02-09T06:29:31.580Z,102900.47
2023-02-09T06:30:03.562Z,102911.44
2023-02-09T06:30:36.430Z,102909.59
2023-02-09T06:31:08.886Z,102907.22
2023-02-09T06:31:42.021Z,102913.41
2023-02-09T06:32:13.984Z,102905.94
2023-02-09T06:32:45.679Z,102906.63
2023-02-09T06:33:18.669Z,102908.31
2023-02-09T06:33:50.352Z,102904.03
2023-02-09T06:34:22.030Z,102906.50
2023-02-09T06:34:53.704Z,102903.94
2023-02-09T06:35:25.361Z,102910.72
2023-02-09T06:35:57.126Z,102910.94
2023-02-09T06:36:28.821Z,102908.41
2023-02-09T06:37:00.632Z,102909.19